Time;durP1;ratioP1;P1;durP2;ratioP2;P2;SDS_P1;SDS_P2;PMS_P1;PMS_P2;Temp;Humidity;BMP_temperature;BMP_pressure;BME280_temperature;BME280_humidity;BME280_pressure;Samples;Min_cycle;Max_cycle;Signal;HPM_P1;HPM_P2
2023/09/15 00:00:39;;;;;;;0.10;0.10;;;;;;;17.92;62.29;101072.44;7365995;19;20078;-62
2023/09/15 00:03:05;;;;;;;0.10;0.10;;;;;;;17.91;61.86;101070.75;7362919;19;20836;-62
2023/09/15 00:05:33;;;;;;;0.03;0.03;;;;;;;17.88;61.83;101062.00;7365185;19;20017;-62
2023/09/15 00:08:00;;;;;;;0.10;0.10;;;;;;;17.86;62.30;101063.88;7368869;19;20015;-62
2023/09/15 00:10:29;;;;;;;0.10;0.10;;;;;;;17.87;61.99;101059.44;7373984;19;20399;-62
2023/09/15 00:12:54;;;;;;;0.10;0.10;;;;;;;17.86;61.87;101065.66;7361444;19;20504;-61
2023/09/15 00:15:20;;;;;;;0.10;0.10;;;;;;;17.84;61.88;101063.13;7364391;19;20010;-62
2023/09/15 00:17:45;;;;;;;0.10;0.10;;;;;;;17.70;62.02;101047.00;7365059;19;20018;-62
2023/09/15 00:20:14;;;;;;;0.10;0.10;;;;;;;17.78;62.33;101055.44;7365466;19;20499;-62
2023/09/15 00:23:00;;;;;;;0.10;0.10;;;;;;;17.84;61.39;101065.75;7366794;19;20082;-62
2023/09/15 00:25:27;;;;;;;0.10;0.10;;;;;;;17.81;62.13;101060.59;7366876;19;20010;-63
2023/09/15 00:27:54;;;;;;;0.10;0.10;;;;;;;17.79;62.54;101062.47;7366558;19;20006;-62
2023/09/15 00:30:22;;;;;;;0.10;0.10;;;;;;;17.78;62.69;101050.16;7366073;19;20002;-62
2023/09/15 00:32:48;;;;;;;0.03;0.03;;;;;;;17.73;62.86;101049.53;7364987;19;20033;-62
2023/09/15 00:35:18;;;;;;;0.10;0.10;;;;;;;17.67;62.67;101035.72;7361834;19;20007;-62
2023/09/15 00:37:46;;;;;;;0.10;0.10;;;;;;;17.74;63.04;101048.63;7363913;19;20053;-62
2023/09/15 00:40:11;;;;;;;;;;;;;;;17.76;61.35;101046.75;7366562;19;20010;-62
2023/09/15 00:42:37;;;;;;;0.10;0.10;;;;;;;17.71;62.85;101038.16;7368039;19;19963;-62
2023/09/15 00:45:06;;;;;;;0.10;0.10;;;;;;;17.69;63.26;101041.78;7361738;19;20011;-62
2023/09/15 00:47:33;;;;;;;0.10;0.10;;;;;;;17.55;62.69;101013.41;7363068;19;20811;-62
2023/09/15 00:50:00;;;;;;;0.10;0.10;;;;;;;17.66;63.07;101042.78;7365339;19;20697;-62
2023/09/15 00:52:27;;;;;;;0.10;0.10;;;;;;;17.65;63.44;101041.09;7364381;19;20022;-62
2023/09/15 00:54:53;;;;;;;0.10;0.10;;;;;;;17.51;63.72;101015.31;7362925;19;20444;-62
2023/09/15 00:57:19;;;;;;;0.10;0.10;;;;;;;17.45;63.41;101005.03;7362410;19;20095;-62
2023/09/15 00:59:45;;;;;;;0.10;0.10;;;;;;;17.61;63.50;101031.59;7370340;19;20003;-62
2023/09/15 01:02:12;;;;;;;0.10;0.10;;;;;;;17.56;63.37;101021.25;7365134;19;20109;-62
2023/09/15 01:04:38;;;;;;;;;;;;;;;17.62;62.08;101025.38;7373520;19;20618;-62
2023/09/15 01:07:05;;;;;;;0.10;0.10;;;;;;;17.58;63.45;101026.44;7372807;19;20460;-62
2023/09/15 01:09:31;;;;;;;0.10;0.10;;;;;;;17.56;63.86;101023.03;7370996;19;20014;-62
2023/09/15 01:11:57;;;;;;;0.10;0.10;;;;;;;17.55;63.53;101021.31;7367464;19;20491;-62
2023/09/15 01:14:22;;;;;;;0.10;0.10;;;;;;;17.53;63.65;101016.09;7368483;19;20011;-62
2023/09/15 01:16:56;;;;;;;0.08;0.08;;;;;;;17.53;63.39;101013.44;7367830;19;20026;-62
2023/09/15 01:19:57;;;;;;;0.10;0.10;;;;;;;17.53;63.10;101012.59;7370359;19;20494;-62
2023/09/15 01:22:42;;;;;;;0.10;0.10;;;;;;;17.53;62.82;101012.59;7373334;19;20489;-62
2023/09/15 01:25:41;;;;;;;0.10;0.10;;;;;;;17.50;62.76;101012.75;7370179;19;20700;-62
2023/09/15 01:28:09;;;;;;;0.10;0.10;;;;;;;17.48;63.63;101017.22;7368143;19;20014;-62
2023/09/15 01:30:36;;;;;;;0.10;0.10;;;;;;;17.47;63.58;101018.16;7371761;19;20015;-61
2023/09/15 01:33:05;;;;;;;0.10;0.10;;;;;;;17.46;63.49;101017.31;7371317;19;20014;-62
2023/09/15 01:35:32;;;;;;;0.10;0.10;;;;;;;17.42;63.85;101013.09;7380559;19;20011;-62
2023/09/15 01:37:57;;;;;;;0.10;0.10;;;;;;;17.43;64.06;101021.88;7369994;19;20775;-62
2023/09/15 01:40:23;;;;;;;0.10;0.10;;;;;;;17.44;64.01;101018.31;7371358;19;20018;-62
2023/09/15 01:42:50;;;;;;;0.05;0.05;;;;;;;17.42;64.16;101009.59;7377578;19;20006;-62
2023/09/15 01:45:16;;;;;;;0.05;0.05;;;;;;;17.42;64.09;101005.19;7376462;19;22157;-62
2023/09/15 01:47:42;;;;;;;0.10;0.10;;;;;;;17.41;64.06;101005.25;7368554;19;20003;-62
2023/09/15 01:50:09;;;;;;;0.10;0.10;;;;;;;17.36;64.06;101001.03;7367409;19;20753;-62
2023/09/15 01:52:34;;;;;;;;;;;;;;;17.44;62.15;101007.75;7366810;19;20102;-62
2023/09/15 01:55:02;;;;;;;0.10;0.10;;;;;;;17.41;63.38;101015.81;7372053;19;19952;-62
2023/09/15 01:57:28;;;;;;;0.10;0.10;;;;;;;17.38;63.46;101015.00;7364878;19;20014;-62
2023/09/15 01:59:57;;;;;;;0.10;0.10;;;;;;;17.40;63.11;101022.03;7369382;19;20019;-62
2023/09/15 02:02:23;;;;;;;0.10;0.10;;;;;;;17.34;63.26;101009.97;7368679;19;20042;-62
2023/09/15 02:04:48;;;;;;;0.10;0.10;;;;;;;17.29;63.38;101002.25;7368189;19;20084;-62
2023/09/15 02:07:13;;;;;;;0.00;0.00;;;;;;;17.32;63.36;101003.88;7375739;19;20011;-62
2023/09/15 02:09:39;;;;;;;0.10;0.10;;;;;;;17.30;63.30;101011.88;7369542;19;20011;-62
2023/09/15 02:12:04;;;;;;;0.10;0.10;;;;;;;17.20;62.59;101005.31;7364140;19;20114;-62
2023/09/15 02:14:30;;;;;;;0.10;0.10;;;;;;;17.28;62.58;101011.09;7370003;19;20010;-62
2023/09/15 02:16:55;;;;;;;0.10;0.10;;;;;;;17.27;62.31;101012.00;7367701;19;20006;-62
2023/09/15 02:19:21;;;;;;;0.08;0.08;;;;;;;17.25;62.39;101007.75;7366489;19;20117;-63
2023/09/15 02:21:46;;;;;;;0.10;0.10;;;;;;;17.23;62.47;101010.44;7375014;19;20033;-62
2023/09/15 02:24:11;;;;;;;0.10;0.10;;;;;;;17.21;62.56;101006.16;7378705;19;20014;-62
2023/09/15 02:26:39;;;;;;;0.10;0.10;;;;;;;17.23;61.82;101005.16;7370626;19;20026;-61
2023/09/15 02:29:04;;;;;;;0.10;0.10;;;;;;;17.20;62.42;101005.31;7368517;19;20010;-62
2023/09/15 02:31:30;;;;;;;0.10;0.10;;;;;;;17.18;62.58;101001.88;7366197;19;20414;-62
2023/09/15 02:33:59;;;;;;;0.10;0.10;;;;;;;17.06;62.10;100987.47;7367121;19;20014;-62
2023/09/15 02:36:25;;;;;;;0.17;0.17;;;;;;;17.16;62.28;101006.38;7365429;19;20362;-62
2023/09/15 02:38:50;;;;;;;0.10;0.10;;;;;;;17.16;62.32;101003.72;7371140;19;20014;-62
2023/09/15 02:41:16;;;;;;;0.10;0.10;;;;;;;17.14;62.21;101000.31;7360213;19;20005;-62
2023/09/15 02:43:41;;;;;;;0.00;0.00;;;;;;;17.13;62.47;100995.94;7369608;19;20017;-62
2023/09/15 02:46:06;;;;;;;0.10;0.10;;;;;;;17.11;62.70;101000.44;7366411;19;19995;-62
2023/09/15 02:48:32;;;;;;;0.10;0.10;;;;;;;17.07;62.31;100998.84;7368785;19;20062;-62
2023/09/15 02:51:00;;;;;;;0.10;0.10;;;;;;;16.93;62.28;100972.22;7364591;19;20025;-62
2023/09/15 02:53:26;;;;;;;0.10;0.10;;;;;;;17.04;62.35;100991.09;7366179;19;20956;-62
2023/09/15 02:55:59;;;;;;;0.10;0.10;;;;;;;17.01;62.00;100973.63;7357960;19;20011;-61
2023/09/15 02:58:26;;;;;;;0.10;0.10;;;;;;;17.06;62.16;100978.69;7367068;19;20782;-62
2023/09/15 03:00:51;;;;;;;0.10;0.10;;;;;;;17.03;62.34;100981.44;7367562;19;20113;-62
2023/09/15 03:03:16;;;;;;;0.10;0.10;;;;;;;17.03;62.58;100986.72;7364855;19;20742;-62
2023/09/15 03:05:42;;;;;;;0.10;0.10;;;;;;;16.99;62.70;100990.44;7374210;19;20032;-62
2023/09/15 03:08:08;;;;;;;0.10;0.10;;;;;;;16.92;62.22;100978.44;7366956;19;20007;-63
2023/09/15 03:10:36;;;;;;;0.10;0.10;;;;;;;16.99;62.17;100985.19;7363905;19;20031;-63
2023/09/15 03:13:04;;;;;;;0.10;0.10;;;;;;;16.96;62.66;100985.31;7372225;19;20029;-63
2023/09/15 03:15:29;;;;;;;0.10;0.10;;;;;;;16.94;62.94;100976.59;7358701;19;20018;-62
2023/09/15 03:17:55;;;;;;;0.10;0.10;;;;;;;16.94;63.10;100981.88;7352938;19;20002;-62
2023/09/15 03:20:21;;;;;;;0.10;0.10;;;;;;;16.94;63.00;100971.34;7353947;19;20022;-62
2023/09/15 03:22:47;;;;;;;0.10;0.10;;;;;;;16.93;62.96;100959.94;7366712;19;20021;-63
2023/09/15 03:25:14;;;;;;;0.10;0.10;;;;;;;16.91;63.26;100958.28;7365490;19;20014;-62
2023/09/15 03:27:40;;;;;;;0.10;0.10;;;;;;;16.86;63.38;100954.06;7365710;19;20473;-62
2023/09/15 03:30:06;;;;;;;0.10;0.10;;;;;;;16.92;63.30;100957.34;7368000;19;20092;-62
2023/09/15 03:32:32;;;;;;;0.10;0.10;;;;;;;16.91;63.20;100950.34;7364953;19;20078;-62
2023/09/15 03:34:57;;;;;;;0.10;0.10;;;;;;;16.91;63.30;100942.44;7364493;19;20058;-62
2023/09/15 03:37:22;;;;;;;0.10;0.10;;;;;;;16.90;63.17;100948.66;7362358;19;20010;-62
2023/09/15 03:39:48;;;;;;;0.10;0.10;;;;;;;16.86;63.06;100953.19;7366554;19;20003;-62
2023/09/15 03:42:13;;;;;;;0.08;0.08;;;;;;;16.88;63.08;100947.84;7367061;19;20009;-63
2023/09/15 03:44:38;;;;;;;0.10;0.10;;;;;;;16.86;62.94;100954.06;7356675;19;20014;-62
2023/09/15 03:47:04;;;;;;;0.10;0.10;;;;;;;16.79;63.38;100936.81;7353234;19;20015;-62
2023/09/15 03:49:30;;;;;;;0.10;0.10;;;;;;;16.81;63.29;100942.84;7364519;19;20083;-62
2023/09/15 03:51:56;;;;;;;0.10;0.10;;;;;;;16.80;63.80;100938.50;7364896;19;20038;-62
2023/09/15 03:54:23;;;;;;;0.10;0.10;;;;;;;16.82;62.97;100943.69;7365328;19;20532;-62
2023/09/15 03:56:48;;;;;;;0.00;0.00;;;;;;;16.80;63.05;100938.50;7364313;19;20011;-62
2023/09/15 03:59:13;;;;;;;0.00;0.00;;;;;;;16.79;63.19;100935.94;7365032;19;20847;-62
2023/09/15 04:01:39;;;;;;;0.10;0.10;;;;;;;16.77;63.71;100933.34;7366575;19;20015;-62
2023/09/15 04:04:05;;;;;;;0.10;0.10;;;;;;;16.77;63.49;100933.34;7362981;19;20490;-62
2023/09/15 04:06:31;;;;;;;0.10;0.10;;;;;;;16.75;63.70;100927.31;7362959;19;20022;-63
2023/09/15 04:08:57;;;;;;;0.10;0.10;;;;;;;16.76;63.44;100922.88;7362576;19;20074;-62
2023/09/15 04:11:23;;;;;;;0.10;0.10;;;;;;;16.76;63.78;100920.25;7365370;19;20090;-62
2023/09/15 04:13:48;;;;;;;0.10;0.10;;;;;;;16.76;63.55;100920.25;7364438;19;20002;-62
2023/09/15 04:16:13;;;;;;;0.10;0.10;;;;;;;16.75;63.50;100919.41;7367580;19;20517;-62
2023/09/15 04:18:40;;;;;;;0.10;0.10;;;;;;;16.75;63.87;100913.28;7365196;19;20010;-63
2023/09/15 04:21:06;;;;;;;0.03;0.03;;;;;;;16.75;63.86;100914.13;7365517;19;20028;-62
2023/09/15 04:23:31;;;;;;;0.03;0.03;;;;;;;16.74;63.45;100903.66;7371623;19;20014;-62
2023/09/15 04:25:57;;;;;;;0.10;0.10;;;;;;;16.75;63.42;100908.00;7360943;19;20040;-62
2023/09/15 04:28:22;;;;;;;0.10;0.10;;;;;;;16.72;63.47;100900.22;7358083;19;20014;-62
2023/09/15 04:30:48;;;;;;;0.10;0.10;;;;;;;16.75;63.38;100900.94;7365665;19;20014;-62
2023/09/15 04:33:14;;;;;;;0.10;0.10;;;;;;;16.71;63.49;100891.44;7363850;19;20769;-62
2023/09/15 04:35:39;;;;;;;0.10;0.10;;;;;;;16.74;63.45;100896.59;7368639;19;20029;-61
2023/09/15 04:38:06;;;;;;;0.10;0.10;;;;;;;16.74;63.87;100907.13;7367407;19;20058;-62
2023/09/15 04:40:31;;;;;;;0.10;0.10;;;;;;;16.70;63.97;100900.25;7368172;19;20019;-62
2023/09/15 04:42:59;;;;;;;0.05;0.05;;;;;;;16.74;63.73;100912.41;7374597;19;20003;-62
2023/09/15 04:45:25;;;;;;;0.10;0.10;;;;;;;16.73;63.68;100913.34;7372569;19;20015;-62
2023/09/15 04:47:50;;;;;;;0.10;0.10;;;;;;;16.73;63.46;100915.97;7369569;19;20565;-62
2023/09/15 04:50:15;;;;;;;0.10;0.10;;;;;;;16.73;63.38;100912.50;7372955;19;20838;-63
2023/09/15 04:52:41;;;;;;;0.10;0.10;;;;;;;16.72;63.45;100916.88;7366095;19;20386;-62
2023/09/15 04:55:06;;;;;;;0.10;0.10;;;;;;;16.71;63.67;100920.44;7372437;19;20779;-62
2023/09/15 04:57:32;;;;;;;0.10;0.10;;;;;;;16.67;63.35;100910.94;7370909;19;20002;-62
2023/09/15 04:59:57;;;;;;;0.10;0.10;;;;;;;16.70;63.82;100921.34;7372695;19;20018;-62
2023/09/15 05:02:23;;;;;;;0.10;0.10;;;;;;;16.70;63.78;100921.34;7372693;19;20018;-62
2023/09/15 05:04:50;;;;;;;0.10;0.10;;;;;;;16.69;63.46;100924.91;7374112;19;20081;-63
2023/09/15 05:07:16;;;;;;;0.10;0.10;;;;;;;16.69;63.92;100919.63;7372465;19;20009;-62
2023/09/15 05:09:41;;;;;;;0.10;0.10;;;;;;;16.67;63.44;100916.19;7369140;19;20063;-62
2023/09/15 05:12:07;;;;;;;0.10;0.10;;;;;;;16.66;63.60;100919.75;7366177;19;20034;-62
2023/09/15 05:14:32;;;;;;;0.00;0.00;;;;;;;16.65;63.33;100923.34;7363844;19;20046;-63
2023/09/15 05:16:58;;;;;;;0.10;0.10;;;;;;;16.63;63.50;100917.28;7369359;19;20007;-63
2023/09/15 05:19:23;;;;;;;0.10;0.10;;;;;;;16.61;63.40;100925.25;7371024;19;20002;-63
2023/09/15 05:21:49;;;;;;;0.10;0.10;;;;;;;16.60;63.32;100917.41;7370494;19;20011;-63
2023/09/15 05:24:14;;;;;;;0.20;0.20;;;;;;;16.59;63.42;100913.06;7368354;19;20025;-62
2023/09/15 05:26:39;;;;;;;0.10;0.10;;;;;;;16.57;63.30;100912.25;7369458;19;20017;-62
2023/09/15 05:29:05;;;;;;;0.10;0.10;;;;;;;16.56;63.64;100918.47;7364645;19;20022;-62
2023/09/15 05:31:30;;;;;;;0.10;0.10;;;;;;;16.55;63.27;100922.03;7369886;19;20024;-62
2023/09/15 05:33:57;;;;;;;0.10;0.10;;;;;;;16.53;63.43;100924.75;7366731;19;20010;-62
2023/09/15 05:36:23;;;;;;;0.10;0.10;;;;;;;16.52;63.45;100927.41;7371060;19;20014;-63
2023/09/15 05:38:48;;;;;;;0.10;0.10;;;;;;;16.51;63.54;100923.06;7371611;19;20025;-62
2023/09/15 05:41:14;;;;;;;0.10;0.10;;;;;;;16.50;63.11;100926.66;7368761;19;20010;-62
2023/09/15 05:43:40;;;;;;;0.10;0.10;;;;;;;16.49;63.47;100927.56;7375350;19;20010;-62
2023/09/15 05:46:06;;;;;;;0.10;0.10;;;;;;;16.40;63.52;100917.44;7373473;19;20043;-62
2023/09/15 05:48:31;;;;;;;0.00;0.00;;;;;;;16.45;63.32;100920.72;7375855;19;20011;-62
2023/09/15 05:50:56;;;;;;;0.10;0.10;;;;;;;16.44;63.65;100924.28;7365736;19;20079;-62
2023/09/15 05:53:22;;;;;;;0.10;0.10;;;;;;;16.44;63.55;100926.91;7369733;19;20007;-63
2023/09/15 05:55:47;;;;;;;0.10;0.10;;;;;;;16.40;63.48;100912.16;7369916;19;20032;-62
2023/09/15 05:58:13;;;;;;;0.10;0.10;;;;;;;16.35;63.56;100913.19;7365347;19;20474;-62
2023/09/15 06:00:40;;;;;;;0.10;0.10;;;;;;;16.40;63.45;100933.25;7373759;19;20702;-63
2023/09/15 06:03:06;;;;;;;0.10;0.10;;;;;;;16.37;63.79;100930.72;7370755;19;20017;-62
2023/09/15 06:05:31;;;;;;;0.10;0.10;;;;;;;16.26;63.66;100926.78;7361279;19;20414;-62
2023/09/15 06:07:56;;;;;;;0.10;0.10;;;;;;;16.35;63.85;100936.91;7367145;19;20007;-63
2023/09/15 06:10:22;;;;;;;0.10;0.10;;;;;;;16.32;63.44;100941.47;7360552;19;20019;-62
2023/09/15 06:12:51;;;;;;;0.10;0.10;;;;;;;16.32;63.57;100942.34;7362520;19;20771;-62
2023/09/15 06:15:18;;;;;;;0.10;0.10;;;;;;;16.27;63.60;100939.06;7368972;19;20018;-62
2023/09/15 06:17:43;;;;;;;0.10;0.10;;;;;;;16.21;63.68;100936.66;7369508;19;20010;-63
2023/09/15 06:20:09;;;;;;;0.10;0.10;;;;;;;16.24;63.91;100944.44;7368777;19;20010;-62
2023/09/15 06:22:34;;;;;;;0.13;0.13;;;;;;;16.21;63.91;100925.25;7365202;19;20030;-63
2023/09/15 06:25:00;;;;;;;0.10;0.10;;;;;;;16.23;63.72;100924.28;7372621;19;20011;-63
2023/09/15 06:27:26;;;;;;;0.05;0.05;;;;;;;16.21;64.02;100928.75;7370647;19;20013;-63
2023/09/15 06:29:55;;;;;;;0.10;0.10;;;;;;;16.20;64.18;100932.31;7368703;19;20018;-62
2023/09/15 06:32:21;;;;;;;0.10;0.10;;;;;;;15.84;63.97;100866.22;7361087;19;20151;-63
2023/09/15 06:34:46;;;;;;;0.10;0.10;;;;;;;16.19;64.28;100929.75;7364174;19;20035;-63
2023/09/15 06:37:12;;;;;;;0.10;0.10;;;;;;;16.20;63.98;100920.91;7365899;19;20017;-62
2023/09/15 06:39:37;;;;;;;0.10;0.10;;;;;;;16.20;64.32;100920.91;7369204;19;20122;-61
2023/09/15 06:42:08;;;;;;;0.10;0.10;;;;;;;16.14;64.02;100910.63;7365378;19;20003;-63
2023/09/15 06:44:34;;;;;;;0.10;0.10;;;;;;;16.15;64.00;100915.84;7366208;19;20022;-62
2023/09/15 06:47:00;;;;;;;0.10;0.10;;;;;;;16.18;63.98;100918.34;7364566;19;20096;-62
2023/09/15 06:49:26;;;;;;;0.00;0.00;;;;;;;16.18;64.27;100918.34;7366855;19;20038;-62
2023/09/15 06:51:52;;;;;;;0.10;0.10;;;;;;;16.11;64.18;100910.75;7364521;19;20007;-62
2023/09/15 06:54:17;;;;;;;0.10;0.10;;;;;;;16.19;64.09;100930.59;7364016;19;20007;-63
2023/09/15 06:56:43;;;;;;;0.10;0.10;;;;;;;16.20;64.00;100923.53;7362719;19;20006;-63
2023/09/15 06:59:08;;;;;;;0.10;0.10;;;;;;;16.19;64.24;100920.06;7364386;19;21186;-62
2023/09/15 07:01:33;;;;;;;0.10;0.10;;;;;;;16.20;64.24;100916.50;7355695;19;20014;-62
2023/09/15 07:03:59;;;;;;;0.10;0.10;;;;;;;16.21;64.33;100925.25;7364196;19;20018;-62
2023/09/15 07:06:25;;;;;;;0.10;0.10;;;;;;;16.20;64.01;100920.91;7375797;19;20028;-63
2023/09/15 07:08:51;;;;;;;0.10;0.10;;;;;;;16.14;64.16;100913.28;7367473;19;20492;-62
2023/09/15 07:11:16;;;;;;;0.10;0.10;;;;;;;16.20;64.45;100919.13;7357824;19;20018;-62
2023/09/15 07:13:42;;;;;;;0.10;0.10;;;;;;;16.20;64.38;100921.75;7366314;19;20010;-63
2023/09/15 07:16:08;;;;;;;0.10;0.10;;;;;;;16.15;64.27;100918.47;7369095;19;20023;-62
2023/09/15 07:18:33;;;;;;;0.10;0.10;;;;;;;16.22;64.29;100921.69;7363054;19;20022;-63
2023/09/15 07:20:59;;;;;;;0.00;0.00;;;;;;;16.20;64.61;100920.91;7366060;19;20007;-62
2023/09/15 07:23:25;;;;;;;0.10;0.10;;;;;;;16.19;64.20;100914.78;7360237;19;20014;-62
2023/09/15 07:25:50;;;;;;;0.10;0.10;;;;;;;16.21;64.24;100912.94;7363476;19;20390;-62
2023/09/15 07:28:15;;;;;;;0.10;0.10;;;;;;;16.11;64.06;100889.69;7363664;19;20366;-63
2023/09/15 07:30:41;;;;;;;0.10;0.10;;;;;;;16.22;64.46;100892.72;7365664;19;20034;-63
2023/09/15 07:33:08;;;;;;;0.10;0.10;;;;;;;16.23;64.60;100904.97;7363755;19;20010;-63
2023/09/15 07:35:35;;;;;;;0.10;0.10;;;;;;;16.23;64.14;100903.19;7364687;19;20026;-62
2023/09/15 07:38:00;;;;;;;0.10;0.10;;;;;;;16.24;64.43;100906.69;7367577;19;20022;-63
2023/09/15 07:40:26;;;;;;;0.10;0.10;;;;;;;16.25;64.15;100911.03;7367918;19;20018;-62
2023/09/15 07:42:52;;;;;;;0.05;0.05;;;;;;;16.17;64.25;100892.94;7367063;19;20105;-62
2023/09/15 07:45:17;;;;;;;0.10;0.10;;;;;;;16.22;64.10;100893.59;7371816;19;20033;-62
2023/09/15 07:47:43;;;;;;;0.10;0.10;;;;;;;16.27;64.23;100896.88;7368277;19;20033;-62
2023/09/15 07:50:08;;;;;;;0.10;0.10;;;;;;;16.26;64.28;100900.41;7362446;19;20445;-62
2023/09/15 07:52:34;;;;;;;0.10;0.10;;;;;;;16.16;64.18;100880.66;7340906;19;20033;-62
2023/09/15 07:55:00;;;;;;;0.10;0.10;;;;;;;16.27;64.08;100910.06;7358752;19;20533;-62
2023/09/15 07:57:25;;;;;;;0.10;0.10;;;;;;;16.30;64.02;100916.97;7360324;19;19999;-62
2023/09/15 07:59:52;;;;;;;0.08;0.08;;;;;;;16.31;63.95;100924.78;7356136;19;20009;-62
2023/09/15 08:02:18;;;;;;;0.10;0.10;;;;;;;16.33;64.08;100924.75;7348492;19;20849;-63
2023/09/15 08:04:43;;;;;;;0.10;0.10;;;;;;;16.32;64.13;100923.91;7364947;19;20013;-62
2023/09/15 08:07:09;;;;;;;0.10;0.10;;;;;;;16.37;64.00;100930.72;7364977;19;20018;-62
2023/09/15 08:09:34;;;;;;;0.10;0.10;;;;;;;16.38;63.97;100914.88;7364286;19;20014;-62
2023/09/15 08:12:00;;;;;;;0.10;0.10;;;;;;;16.40;64.07;100914.78;7359159;19;20336;-63
2023/09/15 08:14:29;;;;;;;0.10;0.10;;;;;;;16.38;63.88;100911.38;7363368;19;20786;-62
2023/09/15 08:16:54;;;;;;;0.10;0.10;;;;;;;16.42;63.91;100920.84;7362944;19;20014;-62
2023/09/15 08:19:22;;;;;;;0.10;0.10;;;;;;;16.24;64.26;100891.72;7367243;19;20025;-63
2023/09/15 08:21:48;;;;;;;0.10;0.10;;;;;;;16.44;63.80;100908.47;7368094;19;20015;-62
2023/09/15 08:24:13;;;;;;;0.10;0.10;;;;;;;16.45;64.28;100911.03;7366418;19;20029;-62
2023/09/15 08:26:39;;;;;;;0.10;0.10;;;;;;;16.46;64.05;100919.78;7365553;19;20671;-62
2023/09/15 08:29:05;;;;;;;0.10;0.10;;;;;;;16.46;64.12;100923.28;7359201;19;20017;-62
2023/09/15 08:31:31;;;;;;;0.10;0.10;;;;;;;16.50;64.21;100934.56;7358683;19;20041;-62
2023/09/15 08:33:56;;;;;;;0.10;0.10;;;;;;;16.49;63.90;100936.34;7356627;19;20019;-63
2023/09/15 08:36:22;;;;;;;0.17;0.17;;;;;;;16.52;63.96;100937.97;7359380;19;20409;-63
2023/09/15 08:38:47;;;;;;;0.10;0.10;;;;;;;16.53;64.37;100939.72;7364520;19;20010;-62
2023/09/15 08:41:24;;;;;;;0.10;0.10;;;;;;;16.57;63.98;100943.91;7365824;19;20010;-63
2023/09/15 08:43:50;;;;;;;0.00;0.00;;;;;;;16.55;63.96;100937.84;7367370;19;20014;-63
2023/09/15 08:46:17;;;;;;;0.08;0.08;;;;;;;16.58;63.80;100948.28;7367392;19;20010;-63
2023/09/15 08:48:49;;;;;;;0.08;0.08;;;;;;;16.49;64.00;100924.94;7365184;19;20082;-62
2023/09/15 08:51:15;;;;;;;0.10;0.10;;;;;;;16.59;64.10;100949.97;7360307;19;20019;-62
2023/09/15 08:53:42;;;;;;;0.00;0.00;;;;;;;16.61;63.92;100953.38;7364953;19;20579;-63
2023/09/15 08:56:07;;;;;;;0.10;0.10;;;;;;;16.59;64.04;100942.91;7362967;19;20049;-62
2023/09/15 08:58:34;;;;;;;0.10;0.10;;;;;;;16.61;64.00;100942.84;7363139;19;20487;-63
2023/09/15 09:01:01;;;;;;;0.10;0.10;;;;;;;16.54;64.38;100937.00;7364348;19;20351;-62
2023/09/15 09:03:26;;;;;;;0.03;0.03;;;;;;;16.50;64.25;100918.72;7360820;19;20011;-63
2023/09/15 09:05:53;;;;;;;0.10;0.10;;;;;;;16.66;64.51;100943.50;7363779;19;20014;-62
2023/09/15 09:08:20;;;;;;;0.10;0.10;;;;;;;16.64;64.52;100931.31;7363859;19;20018;-63
2023/09/15 09:10:46;;;;;;;0.10;0.10;;;;;;;16.70;64.31;100942.44;7361140;19;20110;-62
2023/09/15 09:13:11;;;;;;;0.10;0.10;;;;;;;16.69;64.11;100935.47;7363762;19;20710;-62
2023/09/15 09:15:41;;;;;;;0.10;0.10;;;;;;;16.73;64.45;100936.22;7358531;19;20018;-63
2023/09/15 09:18:16;;;;;;;0.05;0.05;;;;;;;16.75;64.15;100937.84;7364764;19;20386;-62
2023/09/15 09:20:42;;;;;;;0.10;0.10;;;;;;;16.53;64.26;100908.06;7367933;19;20035;-63
2023/09/15 09:23:09;;;;;;;0.10;0.10;;;;;;;16.73;64.37;100941.50;7368502;19;20018;-63
2023/09/15 09:25:35;;;;;;;0.10;0.10;;;;;;;16.73;64.65;100945.00;7370776;19;20010;-63
2023/09/15 09:28:03;;;;;;;0.10;0.10;;;;;;;16.74;64.20;100948.47;7368858;19;20014;-62
2023/09/15 09:30:29;;;;;;;0.10;0.10;;;;;;;16.75;64.41;100951.03;7370459;19;20006;-63
2023/09/15 09:33:00;;;;;;;0.10;0.10;;;;;;;16.80;63.93;100949.06;7339070;19;20021;-62
2023/09/15 09:35:26;;;;;;;0.10;0.10;;;;;;;16.79;64.68;100950.00;7367081;19;20014;-63
2023/09/15 09:37:53;;;;;;;0.10;0.10;;;;;;;16.76;64.47;100938.72;7371199;19;20027;-63
2023/09/15 09:40:20;;;;;;;0.10;0.10;;;;;;;16.82;64.10;100943.69;7371698;19;20010;-63
2023/09/15 09:42:46;;;;;;;;;;;;;;;16.91;63.44;100945.94;7364824;19;20836;-63
2023/09/15 09:45:12;;;;;;;0.10;0.10;;;;;;;16.86;64.57;100943.50;7369360;19;19996;-63
2023/09/15 09:47:37;;;;;;;0.10;0.10;;;;;;;16.89;64.29;100941.66;7369626;19;20115;-63
2023/09/15 09:50:11;;;;;;;0.10;0.10;;;;;;;16.93;64.14;100949.38;7369577;19;20045;-63
2023/09/15 09:52:37;;;;;;;0.10;0.10;;;;;;;16.91;64.32;100945.09;7365716;19;20010;-63
2023/09/15 09:55:08;;;;;;;0.08;0.08;;;;;;;16.93;64.48;100946.75;7366710;19;20049;-63
2023/09/15 09:57:33;;;;;;;0.10;0.10;;;;;;;16.90;64.72;100949.50;7368220;19;20018;-63
2023/09/15 09:59:59;;;;;;;0.00;0.00;;;;;;;16.90;64.70;100948.66;7355925;19;20003;-63
2023/09/15 10:02:26;;;;;;;0.00;0.00;;;;;;;16.91;64.43;100950.34;7366755;19;20020;-63
2023/09/15 10:04:51;;;;;;;0.10;0.10;;;;;;;16.90;64.70;100940.75;7368653;19;20047;-63
2023/09/15 10:07:17;;;;;;;0.10;0.10;;;;;;;16.91;64.18;100926.63;7358855;19;20602;-63
2023/09/15 10:09:44;;;;;;;0.03;0.03;;;;;;;16.76;64.62;100899.16;7364428;19;20029;-63
2023/09/15 10:12:10;;;;;;;0.00;0.00;;;;;;;16.94;64.62;100929.13;7364259;19;20010;-63
2023/09/15 10:14:36;;;;;;;0.10;0.10;;;;;;;16.93;64.74;100923.00;7364337;19;20034;-63
2023/09/15 10:17:02;;;;;;;0.10;0.10;;;;;;;16.88;64.33;100918.81;7342990;19;20334;-63
2023/09/15 10:19:28;;;;;;;0.10;0.10;;;;;;;16.95;64.46;100936.09;7363682;19;20018;-63
2023/09/15 10:21:57;;;;;;;0.10;0.10;;;;;;;16.96;64.51;100940.44;7367201;19;20778;-63
2023/09/15 10:24:22;;;;;;;0.10;0.10;;;;;;;16.94;64.73;100940.53;7367609;19;20018;-63
2023/09/15 10:26:48;;;;;;;0.10;0.10;;;;;;;16.94;64.67;100939.69;7364188;19;20383;-63
2023/09/15 10:29:14;;;;;;;0.10;0.10;;;;;;;16.93;64.90;100938.81;7367977;19;20913;-63
2023/09/15 10:31:46;;;;;;;0.10;0.10;;;;;;;16.97;64.65;100942.16;7364086;19;20003;-63
2023/09/15 10:34:13;;;;;;;0.10;0.10;;;;;;;16.94;64.88;100937.03;7369232;19;20010;-63
2023/09/15 10:36:40;;;;;;;0.10;0.10;;;;;;;16.94;64.98;100943.16;7362619;19;20022;-63
2023/09/15 10:39:19;;;;;;;0.10;0.10;;;;;;;16.95;64.17;100941.38;7368263;19;20026;-63
2023/09/15 10:41:45;;;;;;;0.10;0.10;;;;;;;16.96;64.70;100953.66;7366915;19;20074;-63
2023/09/15 10:44:11;;;;;;;0.10;0.10;;;;;;;16.95;64.66;100949.28;7364352;19;20101;-63
2023/09/15 10:46:39;;;;;;;0.10;0.10;;;;;;;16.97;64.79;100958.00;7359536;19;20003;-63
2023/09/15 10:49:21;;;;;;;0.10;0.10;;;;;;;17.01;64.57;100959.56;7366044;19;20591;-63
2023/09/15 10:51:52;;;;;;;0.10;0.10;;;;;;;17.01;64.52;100956.94;7365819;19;20019;-63
2023/09/15 10:54:19;;;;;;;0.00;0.00;;;;;;;16.92;64.84;100944.16;7363377;19;20018;-63
2023/09/15 10:56:45;;;;;;;0.10;0.10;;;;;;;16.99;64.70;100948.25;7364523;19;20891;-63
2023/09/15 10:59:10;;;;;;;0.10;0.10;;;;;;;17.00;64.76;100940.25;7361739;19;20010;-63
2023/09/15 11:01:36;;;;;;;0.10;0.10;;;;;;;16.94;64.77;100929.97;7360007;19;20011;-63
2023/09/15 11:04:03;;;;;;;0.10;0.10;;;;;;;17.02;64.97;100937.53;7359108;19;20007;-63
2023/09/15 11:06:29;;;;;;;0.10;0.10;;;;;;;17.03;64.82;100933.97;7365170;19;20014;-62
2023/09/15 11:08:57;;;;;;;0.10;0.10;;;;;;;17.04;64.65;100935.69;7367379;19;21608;-63
2023/09/15 11:11:23;;;;;;;0.10;0.10;;;;;;;17.06;65.05;100945.25;7372589;19;20030;-62
2023/09/15 11:13:48;;;;;;;0.10;0.10;;;;;;;17.06;64.73;100939.09;7360490;19;20014;-63
2023/09/15 11:16:14;;;;;;;0.10;0.10;;;;;;;17.09;64.66;100944.25;7369595;19;20862;-63
2023/09/15 11:18:39;;;;;;;0.13;0.13;;;;;;;17.11;64.98;100942.38;7370376;19;20388;-63
2023/09/15 11:21:06;;;;;;;0.10;0.10;;;;;;;17.12;64.70;100944.09;7370043;19;20046;-62
2023/09/15 11:23:31;;;;;;;0.10;0.10;;;;;;;17.12;65.02;100952.00;7366886;19;20006;-63